Terminal Aerodrome Forecast
Issued by NWS

Current Version | Previous Version | Text Only | Print | Product List | Glossary On
Versions: 1 2 3 4 5 6 7 8 9 10 11 12 13 14 15
000
FTUS46 KMTR 220533
TAFOAK
TAF
KOAK 220533Z 2206/2312 29007KT P6SM FEW010
      TEMPO 2211/2215 1SM BR SCT008
     FM222000 29010KT P6SM SKC
     FM230300 32008KT P6SM SKC
     FM230500 02005KT P6SM SKC WS015/04035KT=

USA.gov is the U.S. government's official web portal to all federal, state and local government web resources and services.